Time;durP1;ratioP1;P1;durP2;ratioP2;P2;SDS_P1;SDS_P2;PMS_P1;PMS_P2;Temp;Humidity;BMP_temperature;BMP_pressure;BME280_temperature;BME280_humidity;BME280_pressure;Samples;Min_cycle;Max_cycle;Signal;HPM_P1;HPM_P2
2022/10/11 00:01:48;;;;;;;6.37;3.60;;;;;;;;;;5049199;28;20196;-44
2022/10/11 00:04:15;;;;;;;4.87;3.40;;;;;;;;;;5037629;28;20233;-40
2022/10/11 00:06:43;;;;;;;7.47;3.97;;;;;;;;;;5041448;28;20197;-40
2022/10/11 00:09:10;;;;;;;4.97;3.40;;;;;;;;;;5049539;28;20225;-40
2022/10/11 00:11:37;;;;;;;6.80;3.50;;;;;;;;;;5044075;28;20417;-40
2022/10/11 00:14:05;;;;;;;4.63;3.80;;;;;;;;;;5043391;28;20198;-40
2022/10/11 00:16:33;;;;;;;3.63;3.27;;;;;;;;;;5049511;28;20204;-40
2022/10/11 00:19:01;;;;;;;4.60;3.37;;;;;;;;;;5045589;28;20198;-38
2022/10/11 00:21:28;;;;;;;8.43;3.83;;;;;;;;;;5041303;28;20229;-44
2022/10/11 00:23:55;;;;;;;6.37;3.70;;;;;;;;;;5050559;28;20212;-34
2022/10/11 00:26:22;;;;;;;7.27;3.80;;;;;;;;;;5046500;28;20205;-39
2022/10/11 00:28:52;;;;;;;7.20;3.70;;;;;;;;;;5049375;28;20221;-43
2022/10/11 00:31:19;;;;;;;7.73;3.57;;;;;;;;;;5049719;28;20228;-39
2022/10/11 00:33:48;;;;;;;8.33;3.33;;;;;;;;;;5043204;28;20221;-41
2022/10/11 00:36:16;;;;;;;6.67;3.93;;;;;;;;;;5048803;28;20214;-41
2022/10/11 00:38:43;;;;;;;6.53;3.80;;;;;;;;;;5030054;28;20203;-41
2022/10/11 00:41:10;;;;;;;5.87;3.77;;;;;;;;;;5029845;28;20330;-40
2022/10/11 00:43:37;;;;;;;3.70;3.37;;;;;;;;;;5036006;28;20198;-38
2022/10/11 00:46:25;;;;;;;3.40;2.93;;;;;;;;;;5044086;28;20206;-39
2022/10/11 00:48:57;;;;;;;3.67;3.30;;;;;;;;;;5036177;28;20221;-42
2022/10/11 00:51:26;;;;;;;7.43;3.77;;;;;;;;;;5046971;28;20230;-40
2022/10/11 00:53:54;;;;;;;9.00;3.97;;;;;;;;;;5049381;28;20205;-36
2022/10/11 00:56:24;;;;;;;7.07;4.30;;;;;;;;;;5046467;28;20206;-43
2022/10/11 00:58:51;;;;;;;5.73;4.20;;;;;;;;;;5042008;28;20198;-37
2022/10/11 01:01:18;;;;;;;3.63;2.93;;;;;;;;;;5041765;28;20232;-36
2022/10/11 01:03:45;;;;;;;4.07;3.63;;;;;;;;;;5046330;28;20208;-42
2022/10/11 01:06:14;;;;;;;6.60;3.97;;;;;;;;;;5048846;28;20209;-39
2022/10/11 01:08:41;;;;;;;13.33;4.63;;;;;;;;;;5049341;28;20234;-41
2022/10/11 01:11:10;;;;;;;11.30;4.30;;;;;;;;;;5037578;28;20229;-40
2022/10/11 01:13:44;;;;;;;4.80;4.10;;;;;;;;;;5044882;28;20200;-35
2022/10/11 01:16:14;;;;;;;4.80;4.13;;;;;;;;;;5050552;28;20206;-41
2022/10/11 01:18:45;;;;;;;8.27;4.63;;;;;;;;;;5036627;28;20203;-39
2022/10/11 01:21:17;;;;;;;20.13;4.47;;;;;;;;;;5048242;28;20225;-38
2022/10/11 01:24:09;;;;;;;6.90;4.13;;;;;;;;;;5049272;28;20196;-40
2022/10/11 01:26:55;;;;;;;4.53;4.10;;;;;;;;;;5028183;28;20212;-38
2022/10/11 01:29:26;;;;;;;9.47;4.60;;;;;;;;;;5048838;28;20236;-35
2022/10/11 01:31:57;;;;;;;5.27;4.50;;;;;;;;;;5045111;28;20248;-37
2022/10/11 01:34:27;;;;;;;10.23;5.37;;;;;;;;;;5037416;28;20225;-34
2022/10/11 01:36:58;;;;;;;8.90;4.23;;;;;;;;;;5048615;28;20194;-37
2022/10/11 01:39:29;;;;;;;10.63;5.10;;;;;;;;;;5048111;28;20194;-37
2022/10/11 01:41:58;;;;;;;11.20;5.47;;;;;;;;;;5038100;28;20220;-36
2022/10/11 01:44:26;;;;;;;9.30;5.33;;;;;;;;;;5048181;28;20255;-41
2022/10/11 01:46:54;;;;;;;11.53;5.20;;;;;;;;;;5046864;28;20260;-43
2022/10/11 01:49:22;;;;;;;13.20;4.87;;;;;;;;;;5038438;28;20231;-37
2022/10/11 01:51:51;;;;;;;4.80;4.30;;;;;;;;;;5048540;28;20209;-41
2022/10/11 01:54:25;;;;;;;7.03;4.93;;;;;;;;;;5048199;28;20196;-36
2022/10/11 01:57:04;;;;;;;6.73;3.73;;;;;;;;;;5045381;28;20209;-39
2022/10/11 01:59:42;;;;;;;5.67;4.10;;;;;;;;;;5047212;28;20198;-39
2022/10/11 02:02:17;;;;;;;7.77;4.73;;;;;;;;;;5043506;28;20294;-38
2022/10/11 02:04:46;;;;;;;5.93;4.07;;;;;;;;;;5038524;28;20679;-36
2022/10/11 02:07:18;;;;;;;7.50;5.00;;;;;;;;;;5051388;28;20206;-38
2022/10/11 02:09:47;;;;;;;19.63;5.00;;;;;;;;;;5052230;28;20237;-36
2022/10/11 02:12:18;;;;;;;13.77;5.23;;;;;;;;;;5042756;28;20216;-39
2022/10/11 02:14:48;;;;;;;13.57;4.80;;;;;;;;;;5048985;28;20198;-38
2022/10/11 02:17:19;;;;;;;30.90;4.90;;;;;;;;;;5049895;28;20300;-42
2022/10/11 02:19:49;;;;;;;14.93;4.17;;;;;;;;;;5043441;28;20224;-42
2022/10/11 02:22:20;;;;;;;49.50;5.10;;;;;;;;;;5051323;28;20267;-37
2022/10/11 02:24:49;;;;;;;18.73;4.40;;;;;;;;;;5047782;28;20285;-41
2022/10/11 02:27:19;;;;;;;8.97;4.87;;;;;;;;;;5050882;28;20216;-36
2022/10/11 02:29:48;;;;;;;4.20;3.80;;;;;;;;;;5050979;28;20234;-39
2022/10/11 02:32:17;;;;;;;4.70;3.77;;;;;;;;;;5047833;28;20232;-39
2022/10/11 02:34:47;;;;;;;4.10;3.77;;;;;;;;;;5039717;28;20312;-36
2022/10/11 02:37:17;;;;;;;5.30;3.33;;;;;;;;;;5050974;28;20208;-36
2022/10/11 02:39:46;;;;;;;4.13;3.23;;;;;;;;;;5049663;28;20231;-38
2022/10/11 02:42:15;;;;;;;4.13;3.40;;;;;;;;;;5040726;28;20216;-41
2022/10/11 02:44:44;;;;;;;4.07;3.20;;;;;;;;;;5042974;28;20206;-39
2022/10/11 02:47:12;;;;;;;3.97;3.27;;;;;;;;;;5048087;28;20217;-42
2022/10/11 02:49:40;;;;;;;8.17;4.50;;;;;;;;;;5043166;28;20240;-41
2022/10/11 02:52:07;;;;;;;5.90;3.23;;;;;;;;;;5050903;28;20203;-41
2022/10/11 02:54:35;;;;;;;4.13;3.00;;;;;;;;;;5051546;28;20220;-39
2022/10/11 02:57:02;;;;;;;8.37;4.23;;;;;;;;;;5047909;28;20198;-40
2022/10/11 02:59:29;;;;;;;13.63;5.00;;;;;;;;;;5045647;28;20214;-34
2022/10/11 03:01:56;;;;;;;4.60;3.73;;;;;;;;;;5048628;28;20209;-44
2022/10/11 03:04:23;;;;;;;6.47;4.57;;;;;;;;;;5048592;28;20224;-36
2022/10/11 03:06:52;;;;;;;12.63;4.57;;;;;;;;;;5050721;28;20202;-35
2022/10/11 03:09:19;;;;;;;4.10;3.70;;;;;;;;;;5050680;28;20242;-41
2022/10/11 03:11:46;;;;;;;6.97;4.60;;;;;;;;;;5049101;28;20241;-38
2022/10/11 03:14:13;;;;;;;7.60;4.10;;;;;;;;;;5041024;28;20214;-38
2022/10/11 03:16:40;;;;;;;7.27;4.50;;;;;;;;;;5049573;28;20194;-42
2022/10/11 03:19:07;;;;;;;12.30;4.30;;;;;;;;;;5039154;28;20206;-43
2022/10/11 03:21:35;;;;;;;10.27;4.87;;;;;;;;;;5050277;28;20227;-42
2022/10/11 03:24:03;;;;;;;3.60;3.30;;;;;;;;;;5050472;28;20213;-35
2022/10/11 03:26:30;;;;;;;6.13;5.13;;;;;;;;;;5046511;28;20237;-38
2022/10/11 03:28:58;;;;;;;5.57;4.50;;;;;;;;;;5045739;28;20225;-39
2022/10/11 03:31:25;;;;;;;10.23;4.90;;;;;;;;;;5054199;28;20222;-40
2022/10/11 03:33:52;;;;;;;11.20;4.90;;;;;;;;;;5042949;28;20205;-39
2022/10/11 03:36:19;;;;;;;12.13;4.30;;;;;;;;;;5050194;28;20275;-38
2022/10/11 03:41:16;;;;;;;7.77;5.20;;;;;;;;;;5062024;28;20235;-44
2022/10/11 03:43:43;;;;;;;7.80;5.83;;;;;;;;;;5062826;28;20197;-39
2022/10/11 03:46:10;;;;;;;6.43;5.60;;;;;;;;;;5070648;28;20204;-34
2022/10/11 03:48:37;;;;;;;7.47;5.53;;;;;;;;;;5057664;28;20249;-41
2022/10/11 03:51:04;;;;;;;6.80;5.30;;;;;;;;;;5069199;28;20273;-40
2022/10/11 03:53:31;;;;;;;5.27;4.43;;;;;;;;;;5070897;28;20206;-36
2022/10/11 03:55:59;;;;;;;7.27;4.67;;;;;;;;;;5063817;28;20205;-41
2022/10/11 03:58:27;;;;;;;5.07;4.17;;;;;;;;;;5065859;28;20262;-41
2022/10/11 04:00:54;;;;;;;7.07;5.27;;;;;;;;;;5070690;28;20232;-40
2022/10/11 04:03:22;;;;;;;9.63;5.50;;;;;;;;;;5057621;28;20304;-41
2022/10/11 04:05:49;;;;;;;9.67;6.33;;;;;;;;;;5066925;28;20204;-35
2022/10/11 04:08:16;;;;;;;9.20;6.17;;;;;;;;;;5070448;28;20315;-42
2022/10/11 04:10:43;;;;;;;5.83;5.03;;;;;;;;;;5070122;28;20218;-42
2022/10/11 04:13:11;;;;;;;8.63;6.03;;;;;;;;;;5064099;28;20250;-39
2022/10/11 04:15:40;;;;;;;9.07;6.40;;;;;;;;;;5064857;28;20207;-44
2022/10/11 04:18:07;;;;;;;7.70;5.70;;;;;;;;;;5061116;28;20212;-38
2022/10/11 04:20:34;;;;;;;6.43;5.20;;;;;;;;;;5067026;28;20221;-37
2022/10/11 04:23:02;;;;;;;6.00;5.40;;;;;;;;;;5070606;28;20197;-41
2022/10/11 04:25:29;;;;;;;6.57;5.03;;;;;;;;;;5066911;28;20214;-38
2022/10/11 04:27:56;;;;;;;8.23;5.53;;;;;;;;;;5063634;28;20208;-41
2022/10/11 04:30:23;;;;;;;15.70;6.67;;;;;;;;;;5069873;28;20346;-41
2022/10/11 04:32:52;;;;;;;11.80;5.33;;;;;;;;;;5062034;28;20197;-37
2022/10/11 04:35:19;;;;;;;6.33;5.43;;;;;;;;;;5070017;28;20215;-41
2022/10/11 04:37:46;;;;;;;7.27;5.50;;;;;;;;;;5070707;28;20198;-41
2022/10/11 04:40:14;;;;;;;9.77;5.77;;;;;;;;;;5068470;28;20262;-33
2022/10/11 04:42:41;;;;;;;7.70;5.77;;;;;;;;;;5062977;28;20309;-41
2022/10/11 04:45:09;;;;;;;7.37;5.60;;;;;;;;;;5070668;28;20206;-36
2022/10/11 04:47:36;;;;;;;9.00;5.80;;;;;;;;;;5068868;28;20268;-41
2022/10/11 04:50:05;;;;;;;8.27;6.40;;;;;;;;;;5065344;28;20236;-42
2022/10/11 04:52:32;;;;;;;10.57;6.63;;;;;;;;;;5071615;28;20205;-44
2022/10/11 04:55:00;;;;;;;8.03;6.17;;;;;;;;;;5072389;28;20214;-34
2022/10/11 04:57:27;;;;;;;8.53;5.93;;;;;;;;;;5059649;28;20208;-37
2022/10/11 04:59:54;;;;;;;9.23;6.47;;;;;;;;;;5068943;28;20321;-44
2022/10/11 05:02:21;;;;;;;12.80;6.80;;;;;;;;;;5065373;28;20206;-41
2022/10/11 05:04:48;;;;;;;7.17;5.67;;;;;;;;;;5061861;28;20207;-39
2022/10/11 05:07:17;;;;;;;7.30;5.00;;;;;;;;;;5069705;28;20208;-42
2022/10/11 05:09:44;;;;;;;5.80;4.87;;;;;;;;;;5069316;28;20231;-37
2022/10/11 05:12:11;;;;;;;6.43;5.30;;;;;;;;;;5057765;28;20296;-39
2022/10/11 05:14:39;;;;;;;7.63;5.93;;;;;;;;;;5068981;28;20205;-44
2022/10/11 05:17:06;;;;;;;8.00;6.40;;;;;;;;;;5066532;28;20203;-40
2022/10/11 05:19:33;;;;;;;8.87;6.20;;;;;;;;;;5059766;28;20217;-42
2022/10/11 05:22:00;;;;;;;8.77;5.40;;;;;;;;;;5069207;28;20208;-42
2022/10/11 05:24:29;;;;;;;6.83;5.17;;;;;;;;;;5069484;28;20221;-41
2022/10/11 05:26:56;;;;;;;6.63;5.03;;;;;;;;;;5060505;28;20209;-35
2022/10/11 05:29:23;;;;;;;8.33;6.13;;;;;;;;;;5063101;28;20225;-34
2022/10/11 05:31:52;;;;;;;9.03;7.00;;;;;;;;;;5067542;28;20259;-36
2022/10/11 05:34:20;;;;;;;10.93;6.33;;;;;;;;;;5059097;28;20210;-40
2022/10/11 05:36:47;;;;;;;10.60;6.50;;;;;;;;;;5068780;28;20299;-38
2022/10/11 05:39:14;;;;;;;9.10;6.40;;;;;;;;;;5071141;28;20209;-42
2022/10/11 05:41:43;;;;;;;6.90;5.67;;;;;;;;;;5070748;28;20293;-35
2022/10/11 05:44:10;;;;;;;9.57;6.17;;;;;;;;;;5057981;28;20292;-40
2022/10/11 05:46:37;;;;;;;8.00;6.00;;;;;;;;;;5071509;28;20212;-43
2022/10/11 05:49:04;;;;;;;10.33;6.63;;;;;;;;;;5064436;28;20232;-43
2022/10/11 05:51:31;;;;;;;7.73;5.30;;;;;;;;;;5072759;28;20313;-39
2022/10/11 05:53:58;;;;;;;7.13;4.90;;;;;;;;;;5072694;28;20217;-40
2022/10/11 05:56:26;;;;;;;5.27;4.70;;;;;;;;;;5069103;28;20205;-40
2022/10/11 05:58:55;;;;;;;7.77;4.97;;;;;;;;;;5070735;28;20190;-38
2022/10/11 06:01:23;;;;;;;8.23;5.07;;;;;;;;;;5074172;28;20223;-39
2022/10/11 06:03:51;;;;;;;6.17;4.63;;;;;;;;;;5066462;28;20199;-42
2022/10/11 06:06:19;;;;;;;9.63;6.57;;;;;;;;;;5069579;28;20193;-42
2022/10/11 06:08:46;;;;;;;8.77;6.73;;;;;;;;;;5068153;28;20293;-42
2022/10/11 06:11:14;;;;;;;11.87;6.73;;;;;;;;;;5067264;28;20231;-35
2022/10/11 06:13:41;;;;;;;8.90;5.77;;;;;;;;;;5066167;28;20193;-35
2022/10/11 06:16:10;;;;;;;6.80;5.23;;;;;;;;;;5065715;28;20201;-37
2022/10/11 06:18:37;;;;;;;11.53;7.37;;;;;;;;;;5056797;28;20218;-43
2022/10/11 06:21:05;;;;;;;7.23;5.43;;;;;;;;;;5074839;28;20224;-38
2022/10/11 06:23:32;;;;;;;11.43;6.40;;;;;;;;;;5065823;28;20225;-40
2022/10/11 06:26:00;;;;;;;8.23;6.03;;;;;;;;;;5071101;28;20196;-42
2022/10/11 06:28:28;;;;;;;15.30;7.17;;;;;;;;;;5063116;28;20264;-41
2022/10/11 06:31:05;;;;;;;8.63;6.23;;;;;;;;;;5071633;28;20229;-41
2022/10/11 06:33:43;;;;;;;9.23;6.63;;;;;;;;;;5068108;28;20202;-38
2022/10/11 06:36:17;;;;;;;9.00;6.37;;;;;;;;;;5073856;28;20211;-40
2022/10/11 06:38:48;;;;;;;9.83;7.10;;;;;;;;;;5053875;28;20209;-43
2022/10/11 06:41:18;;;;;;;7.63;6.37;;;;;;;;;;5065945;28;20278;-38
2022/10/11 06:43:51;;;;;;;8.63;6.30;;;;;;;;;;5069122;28;20219;-37
2022/10/11 06:46:25;;;;;;;15.33;7.33;;;;;;;;;;5074584;28;20251;-38
2022/10/11 06:48:57;;;;;;;9.57;7.00;;;;;;;;;;5067894;28;20243;-40
2022/10/11 06:51:31;;;;;;;14.47;8.67;;;;;;;;;;5070913;28;20217;-41
2022/10/11 06:54:12;;;;;;;14.30;8.10;;;;;;;;;;5070474;28;20262;-34
2022/10/11 06:56:54;;;;;;;9.97;7.03;;;;;;;;;;5068437;28;20269;-40
2022/10/11 07:02:11;;;;;;;13.57;9.20;;;;;;;;;;5066432;28;20205;-41
2022/10/11 07:04:52;;;;;;;14.10;9.03;;;;;;;;;;5066283;28;20201;-34
2022/10/11 07:07:37;;;;;;;14.93;9.13;;;;;;;;;;5074078;28;20210;-44
2022/10/11 07:10:27;;;;;;;16.10;9.77;;;;;;;;;;5073525;28;20227;-44
2022/10/11 07:12:59;;;;;;;14.57;7.80;;;;;;;;;;5062421;28;20198;-37
2022/10/11 07:15:58;;;;;;;13.53;8.30;;;;;;;;;;5070681;28;20201;-42
2022/10/11 07:21:04;;;;;;;13.63;9.07;;;;;;;;;;5048523;28;20248;-40
2022/10/11 07:23:42;;;;;;;16.83;10.10;;;;;;;;;;5047556;28;20257;-42
2022/10/11 07:26:11;;;;;;;16.23;9.83;;;;;;;;;;5036811;28;20206;-42
2022/10/11 07:28:51;;;;;;;19.60;9.70;;;;;;;;;;5043962;28;20214;-38
2022/10/11 07:31:25;;;;;;;17.07;10.50;;;;;;;;;;5042870;28;20262;-43
2022/10/11 07:34:04;;;;;;;14.53;9.63;;;;;;;;;;5045100;28;20206;-39
2022/10/11 07:37:00;;;;;;;12.33;8.80;;;;;;;;;;5040544;28;20270;-43
2022/10/11 07:39:32;;;;;;;14.73;9.23;;;;;;;;;;5049519;28;20221;-40
2022/10/11 07:42:08;;;;;;;15.60;9.10;;;;;;;;;;5046174;28;20204;-39
2022/10/11 07:44:53;;;;;;;21.53;11.17;;;;;;;;;;5051903;28;20198;-35
2022/10/11 07:47:34;;;;;;;20.17;10.90;;;;;;;;;;5038872;28;20209;-40
2022/10/11 07:50:18;;;;;;;15.40;11.20;;;;;;;;;;5047197;28;20223;-43
2022/10/11 07:53:05;;;;;;;20.40;11.53;;;;;;;;;;5042679;28;20202;-41
2022/10/11 07:55:52;;;;;;;19.60;12.03;;;;;;;;;;5051802;28;20203;-36
2022/10/11 07:58:26;;;;;;;18.77;11.57;;;;;;;;;;5038742;28;20215;-37
2022/10/11 08:01:07;;;;;;;18.53;11.33;;;;;;;;;;5044755;28;20292;-37
2022/10/11 08:03:40;;;;;;;16.57;9.93;;;;;;;;;;5048274;28;20209;-43
2022/10/11 08:06:10;;;;;;;13.27;9.57;;;;;;;;;;5048302;28;20290;-36
2022/10/11 08:08:45;;;;;;;22.93;11.63;;;;;;;;;;5052525;28;20224;-40
2022/10/11 08:11:24;;;;;;;24.10;12.40;;;;;;;;;;5040983;28;20226;-38
2022/10/11 08:14:07;;;;;;;18.10;11.53;;;;;;;;;;5045248;28;20200;-44
2022/10/11 08:16:41;;;;;;;19.63;11.93;;;;;;;;;;5051603;28;20200;-42
2022/10/11 08:19:19;;;;;;;14.27;10.53;;;;;;;;;;5042615;28;20210;-41
2022/10/11 08:21:56;;;;;;;17.43;10.70;;;;;;;;;;5051605;28;20205;-40
2022/10/11 08:24:37;;;;;;;19.43;12.47;;;;;;;;;;5050280;28;20269;-39
2022/10/11 08:27:10;;;;;;;21.77;13.10;;;;;;;;;;5045823;28;20213;-38
2022/10/11 08:29:42;;;;;;;20.87;12.37;;;;;;;;;;5048038;28;20217;-37
2022/10/11 08:32:20;;;;;;;26.33;12.20;;;;;;;;;;5047957;28;20211;-37
2022/10/11 08:35:05;;;;;;;18.77;12.27;;;;;;;;;;5044124;28;20282;-43
2022/10/11 08:37:39;;;;;;;22.23;11.57;;;;;;;;;;5052193;28;20267;-39
2022/10/11 08:40:16;;;;;;;17.20;10.70;;;;;;;;;;5049701;28;20279;-37
2022/10/11 08:42:58;;;;;;;20.20;11.43;;;;;;;;;;5044176;28;20205;-40
2022/10/11 08:45:33;;;;;;;15.93;9.77;;;;;;;;;;5047941;28;20204;-40
2022/10/11 08:48:12;;;;;;;19.40;10.10;;;;;;;;;;5046481;28;20193;-37
2022/10/11 08:50:48;;;;;;;15.90;10.80;;;;;;;;;;5042315;28;20223;-39
2022/10/11 08:53:25;;;;;;;16.03;9.67;;;;;;;;;;5049680;28;20206;-41
2022/10/11 08:58:46;;;;;;;18.60;10.20;;;;;;;;;;5048663;28;20340;-43
2022/10/11 09:01:31;;;;;;;18.03;10.67;;;;;;;;;;5051844;28;20229;-44
2022/10/11 09:04:01;;;;;;;19.90;9.87;;;;;;;;;;5043830;28;20197;-39
2022/10/11 09:06:41;;;;;;;18.00;10.00;;;;;;;;;;5051540;28;20206;-42
2022/10/11 09:09:23;;;;;;;19.33;9.87;;;;;;;;;;5045749;28;20209;-39
2022/10/11 09:12:08;;;;;;;13.60;9.50;;;;;;;;;;5043370;28;20224;-43
2022/10/11 09:15:01;;;;;;;14.40;10.00;;;;;;;;;;5053329;28;20208;-39
2022/10/11 09:17:41;;;;;;;19.53;10.00;;;;;;;;;;5038642;28;20190;-37
2022/10/11 09:20:32;;;;;;;16.13;10.23;;;;;;;;;;5046431;28;20234;-43
2022/10/11 09:23:07;;;;;;;14.90;9.37;;;;;;;;;;5049025;28;20205;-42
2022/10/11 09:25:40;;;;;;;16.47;10.87;;;;;;;;;;5053815;28;20209;-40
2022/10/11 09:28:29;;;;;;;;;;;;;;;;;;;;;
2022/10/11 09:31:03;;;;;;;15.97;9.53;;;;;;;;;;5047997;28;20229;-41
2022/10/11 09:33:44;;;;;;;16.60;9.80;;;;;;;;;;5046535;28;20205;-42
2022/10/11 09:36:20;;;;;;;17.00;10.13;;;;;;;;;;5049110;28;20248;-36
2022/10/11 09:39:12;;;;;;;16.13;9.57;;;;;;;;;;5053854;28;20196;-38
2022/10/11 09:44:13;;;;;;;14.00;9.27;;;;;;;;;;5052316;28;20486;-42
2022/10/11 09:46:41;;;;;;;14.27;9.10;;;;;;;;;;5051706;28;20213;-44
2022/10/11 09:49:10;;;;;;;15.90;10.33;;;;;;;;;;5051373;28;20210;-44
2022/10/11 09:51:38;;;;;;;15.20;9.10;;;;;;;;;;5052281;28;20229;-40
2022/10/11 09:54:06;;;;;;;16.47;9.90;;;;;;;;;;5054754;28;20293;-43
2022/10/11 09:56:34;;;;;;;14.57;9.50;;;;;;;;;;5050611;28;20306;-41
2022/10/11 09:59:10;;;;;;;12.50;8.50;;;;;;;;;;5055342;28;20552;-40
2022/10/11 10:01:37;;;;;;;20.53;9.97;;;;;;;;;;5053727;28;20224;-42
2022/10/11 10:04:07;;;;;;;15.27;8.77;;;;;;;;;;5046692;28;20202;-43
2022/10/11 10:06:34;;;;;;;30.47;9.90;;;;;;;;;;5037350;28;20209;-40
2022/10/11 10:09:16;;;;;;;17.73;9.17;;;;;;;;;;5048095;28;20202;-45
2022/10/11 10:11:43;;;;;;;16.87;9.70;;;;;;;;;;5054431;28;20240;-42
2022/10/11 10:14:19;;;;;;;14.47;8.30;;;;;;;;;;5044361;28;20207;-45
2022/10/11 10:16:46;;;;;;;16.57;9.53;;;;;;;;;;5051421;28;20215;-45
2022/10/11 10:19:18;;;;;;;20.33;9.87;;;;;;;;;;5042239;28;20216;-45
2022/10/11 10:21:46;;;;;;;18.67;9.70;;;;;;;;;;5049825;28;20203;-41
2022/10/11 10:24:19;;;;;;;23.70;10.80;;;;;;;;;;5039601;28;20221;-39
2022/10/11 10:27:06;;;;;;;19.67;10.37;;;;;;;;;;5051754;28;20287;-44
2022/10/11 10:29:36;;;;;;;20.47;9.53;;;;;;;;;;5055421;28;20521;-45
2022/10/11 10:32:09;;;;;;;17.43;8.70;;;;;;;;;;5047333;28;20220;-41
2022/10/11 10:34:37;;;;;;;12.73;8.50;;;;;;;;;;5055162;28;20197;-45
2022/10/11 10:37:09;;;;;;;16.37;8.80;;;;;;;;;;5046962;28;20202;-44
2022/10/11 10:39:39;;;;;;;13.10;8.33;;;;;;;;;;5051577;28;20204;-43
2022/10/11 10:42:11;;;;;;;15.97;7.90;;;;;;;;;;5049835;28;22028;-43
2022/10/11 10:44:40;;;;;;;18.50;8.33;;;;;;;;;;5040315;28;20210;-45
2022/10/11 10:47:10;;;;;;;10.93;7.10;;;;;;;;;;5034239;28;20207;-42
2022/10/11 10:49:40;;;;;;;13.40;7.37;;;;;;;;;;5049453;28;20225;-40
2022/10/11 10:52:16;;;;;;;12.93;7.43;;;;;;;;;;5050356;28;20226;-39
2022/10/11 10:54:49;;;;;;;15.33;7.00;;;;;;;;;;5045602;28;20217;-41
2022/10/11 10:57:19;;;;;;;13.13;6.53;;;;;;;;;;5055649;28;20203;-40
2022/10/11 10:59:53;;;;;;;12.47;6.47;;;;;;;;;;5055949;28;20255;-43
2022/10/11 11:02:22;;;;;;;12.53;6.40;;;;;;;;;;5037959;28;20290;-40
2022/10/11 11:04:51;;;;;;;14.47;7.53;;;;;;;;;;5050549;28;20194;-43
2022/10/11 11:07:21;;;;;;;8.73;5.80;;;;;;;;;;5044066;28;20275;-44
2022/10/11 11:09:52;;;;;;;11.47;5.57;;;;;;;;;;5031574;28;20226;-42
2022/10/11 11:12:25;;;;;;;12.50;5.90;;;;;;;;;;5036978;28;20771;-42
2022/10/11 11:14:59;;;;;;;12.13;6.90;;;;;;;;;;5046314;28;20199;-38
2022/10/11 11:17:32;;;;;;;10.27;6.50;;;;;;;;;;5034114;28;20289;-42
2022/10/11 11:20:05;;;;;;;16.73;6.73;;;;;;;;;;5044746;28;20214;-41
2022/10/11 11:22:38;;;;;;;11.20;5.90;;;;;;;;;;5031338;28;20227;-40
2022/10/11 11:25:09;;;;;;;14.47;6.70;;;;;;;;;;5041243;28;20220;-44
2022/10/11 11:27:41;;;;;;;12.90;6.80;;;;;;;;;;5052640;28;20238;-44
2022/10/11 11:30:12;;;;;;;11.73;6.43;;;;;;;;;;5035729;28;20219;-37
2022/10/11 11:32:46;;;;;;;13.90;6.30;;;;;;;;;;5034656;28;20260;-39
2022/10/11 11:35:17;;;;;;;15.80;7.20;;;;;;;;;;5039289;28;20194;-37
2022/10/11 11:37:46;;;;;;;12.47;6.70;;;;;;;;;;5030582;28;20289;-41
2022/10/11 11:40:16;;;;;;;15.97;6.73;;;;;;;;;;5031248;28;20288;-40
2022/10/11 11:42:45;;;;;;;15.33;6.70;;;;;;;;;;5046287;28;20205;-37
2022/10/11 11:45:18;;;;;;;13.10;6.50;;;;;;;;;;5044440;28;20199;-40
2022/10/11 11:47:47;;;;;;;11.13;6.33;;;;;;;;;;5046725;28;20673;-43
2022/10/11 11:50:21;;;;;;;16.13;7.27;;;;;;;;;;5041272;28;20234;-43
2022/10/11 11:52:49;;;;;;;13.20;6.50;;;;;;;;;;5038150;28;20224;-43
2022/10/11 11:55:18;;;;;;;10.73;6.97;;;;;;;;;;5043416;28;20212;-42
2022/10/11 11:57:52;;;;;;;13.83;6.60;;;;;;;;;;5037648;28;20198;-43
2022/10/11 12:00:22;;;;;;;15.43;7.40;;;;;;;;;;5040013;28;20237;-35
2022/10/11 12:02:52;;;;;;;9.63;6.97;;;;;;;;;;5034764;28;20194;-45
2022/10/11 12:05:21;;;;;;;17.97;7.20;;;;;;;;;;5042384;28;20202;-42
2022/10/11 12:07:57;;;;;;;14.03;7.10;;;;;;;;;;5030879;28;20194;-42
2022/10/11 12:10:26;;;;;;;15.30;7.83;;;;;;;;;;5032938;28;20308;-46
2022/10/11 12:13:03;;;;;;;13.73;7.03;;;;;;;;;;5049011;28;20599;-41
2022/10/11 12:15:32;;;;;;;11.33;6.67;;;;;;;;;;5049470;28;20198;-43
2022/10/11 12:18:04;;;;;;;12.63;7.00;;;;;;;;;;5035521;28;20204;-43
2022/10/11 12:20:32;;;;;;;10.57;6.63;;;;;;;;;;5035685;28;20258;-45
2022/10/11 12:23:00;;;;;;;14.07;6.73;;;;;;;;;;5040600;28;20193;-39
2022/10/11 12:25:39;;;;;;;13.27;7.37;;;;;;;;;;5050512;28;20202;-43
2022/10/11 12:28:24;;;;;;;13.53;7.50;;;;;;;;;;5056482;28;20209;-45
2022/10/11 12:30:53;;;;;;;14.60;7.03;;;;;;;;;;5035776;28;20215;-40
2022/10/11 12:33:21;;;;;;;12.03;7.27;;;;;;;;;;5045094;28;20681;-45
2022/10/11 12:35:58;;;;;;;16.47;8.30;;;;;;;;;;5044294;28;20621;-44
2022/10/11 12:38:27;;;;;;;9.80;6.00;;;;;;;;;;5031625;28;20284;-42
2022/10/11 12:40:55;;;;;;;10.90;6.93;;;;;;;;;;5040994;28;20236;-41
2022/10/11 12:43:27;;;;;;;12.47;6.57;;;;;;;;;;5052851;28;20209;-43
2022/10/11 12:45:56;;;;;;;8.67;6.70;;;;;;;;;;5042741;28;20552;-42
2022/10/11 12:48:35;;;;;;;14.03;6.10;;;;;;;;;;5051054;28;20288;-43
2022/10/11 12:51:09;;;;;;;13.17;6.27;;;;;;;;;;5053611;28;20224;-42
2022/10/11 12:53:48;;;;;;;10.60;5.93;;;;;;;;;;5031955;28;20190;-41
2022/10/11 12:56:20;;;;;;;10.53;6.30;;;;;;;;;;5045829;28;20205;-45
2022/10/11 12:58:48;;;;;;;11.87;6.27;;;;;;;;;;5047971;28;20207;-42
2022/10/11 13:01:21;;;;;;;13.57;6.40;;;;;;;;;;5045662;28;20219;-45
2022/10/11 13:03:52;;;;;;;9.43;6.47;;;;;;;;;;5048062;28;20203;-45
2022/10/11 13:06:20;;;;;;;8.47;6.70;;;;;;;;;;5041615;28;20213;-44
2022/10/11 13:08:51;;;;;;;11.13;6.37;;;;;;;;;;5049277;28;20225;-45
2022/10/11 13:11:19;;;;;;;11.47;5.83;;;;;;;;;;5048758;28;20225;-44
2022/10/11 13:13:49;;;;;;;12.87;6.13;;;;;;;;;;5041373;28;20206;-42
2022/10/11 13:16:17;;;;;;;13.97;6.10;;;;;;;;;;5037832;28;20202;-43
2022/10/11 13:18:48;;;;;;;11.40;6.27;;;;;;;;;;5040903;28;20201;-42
2022/10/11 13:21:18;;;;;;;10.00;6.13;;;;;;;;;;5038139;28;20218;-44
2022/10/11 13:23:45;;;;;;;10.17;5.33;;;;;;;;;;5031030;28;20198;-44
2022/10/11 13:26:13;;;;;;;7.63;6.13;;;;;;;;;;5049612;28;20197;-45
2022/10/11 13:28:41;;;;;;;11.57;5.80;;;;;;;;;;5048083;28;20530;-46
2022/10/11 13:31:09;;;;;;;14.13;6.20;;;;;;;;;;5041280;28;20604;-40
2022/10/11 13:33:38;;;;;;;9.27;5.73;;;;;;;;;;5048184;28;20205;-41
2022/10/11 13:36:09;;;;;;;12.20;6.13;;;;;;;;;;5037908;28;20198;-40
2022/10/11 13:38:37;;;;;;;9.37;5.60;;;;;;;;;;5029534;28;20194;-38
2022/10/11 13:41:05;;;;;;;7.30;5.63;;;;;;;;;;5049428;28;20218;-44
2022/10/11 13:43:32;;;;;;;9.43;5.67;;;;;;;;;;5041150;28;20213;-40
2022/10/11 13:46:00;;;;;;;9.80;5.57;;;;;;;;;;5037295;28;20198;-39
2022/10/11 13:48:28;;;;;;;10.40;5.70;;;;;;;;;;5038252;28;20198;-42
2022/10/11 13:51:09;;;;;;;13.13;5.60;;;;;;;;;;5044960;28;20309;-40
2022/10/11 13:53:36;;;;;;;6.97;5.37;;;;;;;;;;5030829;28;20198;-44
2022/10/11 13:56:05;;;;;;;12.93;5.83;;;;;;;;;;5040329;28;20206;-43
2022/10/11 13:58:35;;;;;;;8.53;5.30;;;;;;;;;;5051824;28;20394;-37
2022/10/11 14:01:03;;;;;;;7.70;5.90;;;;;;;;;;5042524;28;20301;-42
2022/10/11 14:03:36;;;;;;;13.27;5.97;;;;;;;;;;5046467;28;20198;-41
2022/10/11 14:06:03;;;;;;;10.17;5.37;;;;;;;;;;5041539;28;20201;-38
2022/10/11 14:08:36;;;;;;;8.07;5.83;;;;;;;;;;5034988;28;20198;-40
2022/10/11 14:11:03;;;;;;;10.67;5.17;;;;;;;;;;5033311;28;20393;-39
2022/10/11 14:13:32;;;;;;;10.27;5.03;;;;;;;;;;5040697;28;20222;-38
2022/10/11 14:16:00;;;;;;;8.83;4.97;;;;;;;;;;5044180;28;20620;-41
2022/10/11 14:18:37;;;;;;;6.10;5.00;;;;;;;;;;5052873;28;20497;-41
2022/10/11 14:21:23;;;;;;;12.47;5.53;;;;;;;;;;5035762;28;20233;-40
2022/10/11 14:23:52;;;;;;;7.77;5.27;;;;;;;;;;5034509;28;20229;-43
2022/10/11 14:26:20;;;;;;;10.47;4.67;;;;;;;;;;5050737;28;20206;-40
2022/10/11 14:28:49;;;;;;;7.80;5.40;;;;;;;;;;5048741;28;20641;-45
2022/10/11 14:31:16;;;;;;;7.23;5.03;;;;;;;;;;5039659;28;20234;-46
2022/10/11 14:33:43;;;;;;;7.00;3.90;;;;;;;;;;5042601;28;20221;-39
2022/10/11 14:36:11;;;;;;;7.73;4.77;;;;;;;;;;5047938;28;20203;-42
2022/10/11 14:38:38;;;;;;;9.47;6.60;;;;;;;;;;5031878;28;20673;-44
2022/10/11 14:41:06;;;;;;;6.97;5.23;;;;;;;;;;5031066;28;20236;-41
2022/10/11 14:43:34;;;;;;;7.30;4.97;;;;;;;;;;5045049;28;20212;-46
2022/10/11 14:46:01;;;;;;;8.10;5.03;;;;;;;;;;5035170;28;20191;-44
2022/10/11 14:48:28;;;;;;;8.50;4.87;;;;;;;;;;5044933;28;20202;-38
2022/10/11 14:50:57;;;;;;;6.80;4.07;;;;;;;;;;5038925;28;20228;-42
2022/10/11 14:53:24;;;;;;;9.70;4.37;;;;;;;;;;5031797;28;20218;-39
2022/10/11 14:55:52;;;;;;;8.53;4.70;;;;;;;;;;5049701;28;20198;-39
2022/10/11 14:58:20;;;;;;;8.73;4.80;;;;;;;;;;5043848;28;20213;-38
2022/10/11 15:00:48;;;;;;;10.77;4.07;;;;;;;;;;5039397;28;20221;-45
2022/10/11 15:03:15;;;;;;;7.50;4.63;;;;;;;;;;5046318;28;20197;-40
2022/10/11 15:05:42;;;;;;;8.17;4.70;;;;;;;;;;5055521;28;20198;-40
2022/10/11 15:08:09;;;;;;;8.33;5.23;;;;;;;;;;5037126;28;20203;-38
2022/10/11 15:10:37;;;;;;;9.17;4.80;;;;;;;;;;5031265;28;20250;-42
2022/10/11 15:13:05;;;;;;;9.10;5.40;;;;;;;;;;5036683;28;20308;-45